Onat — 3EBN4 — position and weather

sailwx.info

Track history (hours):
 
Tides and Currents Weather Stations Pressure Air Temp Water Temp Dewpoint Dewpoint Depression Visibility Wind Speed Wind Dir Waves Ship Positions

Onat

Last reported at 2018-Jul-12 06:31 UTC. Time now 2018-Jul-17 13:36 UTC.
Position N 26°53' W 014°08'.

Length 91 m; draft 5.6 m.

Type: Cargo ship. MMSI: 355854000.

Date/timePositionNaut miles runAvg speedWind from/ knotsBaromVisibWave heightAir tempDewpointWater temp
2018-Jul-12 06:31N 26°53' W 014°08'110.6
2018-Jul-12 06:25N 26°54' W 014°07'710.4
2018-Jul-12 05:46N 26°59' W 014°03'310.4
2018-Jul-12 05:29N 27°01' W 014°01'510.5
2018-Jul-12 04:58N 27°06' W 013°57'1710.9
2018-Jul-12 03:23N 27°19' W 013°45'711.1
2018-Jul-12 02:45N 27°25' W 013°40'311.3
2018-Jul-12 02:30N 27°27' W 013°38'611.0
2018-Jul-12 01:59N 27°31' W 013°34'510.9
2018-Jul-12 01:30N 27°36' W 013°30'610.9
2018-Jul-12 01:00N 27°40' W 013°26'510.9
2018-Jul-12 00:31N 27°44' W 013°23'510.9
2018-Jul-12 00:01N 27°48' W 013°19'510.9
2018-Jul-11 23:31N 27°53' W 013°15'510.8
2018-Jul-11 23:01N 27°57' W 013°11'510.9
2018-Jul-11 22:30N 28°00' W 013°07'610.8
2018-Jul-11 22:00N 28°04' W 013°02'510.6
2018-Jul-11 21:30N 28°08' W 012°58'1710.5
2018-Jul-11 19:55N 28°21' W 012°47'510.6
2018-Jul-11 19:28N 28°25' W 012°43'1810.6
2018-Jul-11 17:44N 28°40' W 012°31'1110.8
2018-Jul-11 16:43N 28°48' W 012°23'911.1
2018-Jul-11 15:54N 28°55' W 012°16'511.0
2018-Jul-11 15:29N 28°59' W 012°13'511.0
2018-Jul-11 15:00N 29°03' W 012°09'510.8
2018-Jul-11 14:31N 29°07' W 012°05'610.6
2018-Jul-11 13:59N 29°12' W 012°02'510.5
2018-Jul-11 13:30N 29°16' W 011°58'610.6
2018-Jul-11 12:55N 29°21' W 011°54'410.6
2018-Jul-11 12:30N 29°24' W 011°51'710.7
2018-Jul-11 11:53N 29°30' W 011°46'510.7
2018-Jul-11 11:22N 29°34' W 011°43'1210.8
2018-Jul-11 10:14N 29°44' W 011°34'811.0
2018-Jul-11 09:31N 29°50' W 011°29'011.3
2018-Jul-11 09:30N 29°50' W 011°29'511.0
2018-Jul-11 09:01N 29°55' W 011°25'1910.8
2018-Jul-11 07:14N 30°11' W 011°13'310.5
2018-Jul-11 07:00N 30°13' W 011°11'710.4
2018-Jul-11 06:17N 30°19' W 011°06'410.6
2018-Jul-11 05:54N 30°22' W 011°03'510.7
2018-Jul-11 05:28N 30°26' W 011°00'910.9
2018-Jul-11 04:41N 30°33' W 010°55'211.4
2018-Jul-11 04:30N 30°35' W 010°54'511.2
2018-Jul-11 04:01N 30°40' W 010°51'611.0
2018-Jul-11 03:26N 30°45' W 010°47'510.8
2018-Jul-11 03:00N 30°49' W 010°44'610.6
2018-Jul-11 02:26N 30°54' W 010°41'610.5
2018-Jul-11 01:49N 30°60' W 010°37'411.1
2018-Jul-11 01:26N 31°04' W 010°35'511.2
2018-Jul-11 00:58N 31°08' W 010°31'511.8
2018-Jul-11 00:30N 31°13' W 010°28'911.5
2018-Jul-10 23:44N 31°20' W 010°23'311.0
2018-Jul-10 23:30N 31°22' W 010°21'611.0
2018-Jul-10 22:59N 31°27' W 010°18'510.9
2018-Jul-10 22:30N 31°32' W 010°14'611.1
2018-Jul-10 21:59N 31°37' W 010°11'510.9
2018-Jul-10 21:30N 31°41' W 010°08'810.7
2018-Jul-10 20:45N 31°49' W 010°04'410.9
2018-Jul-10 20:24N 31°52' W 010°01'511.2
2018-Jul-10 20:00N 31°56' W 009°59'611.1
2018-Jul-10 19:30N 32°00' W 009°55'711.0
2018-Jul-10 18:51N 32°07' W 009°51'711.0
2018-Jul-10 18:11N 32°13' W 009°47'811.3
2018-Jul-10 17:28N 32°20' W 009°42'611.5
2018-Jul-10 16:59N 32°25' W 009°39'811.7
2018-Jul-10 16:16N 32°32' W 009°34'411.5
2018-Jul-10 15:55N 32°35' W 009°31'1411.7
2018-Jul-10 14:46N 32°47' W 009°22'9611.0
2018-Jul-10 06:05N 33°57' W 008°05'410.0
2018-Jul-10 05:39N 34°00' W 008°01'48 9.8
2018-Jul-10 00:46N 34°35' W 007°21'128 9.9
2018-Jul-09 11:51N 36°00' W 005°24'4 8.2
2018-Jul-09 11:23N 36°01' W 005°20'3 7.9
2018-Jul-09 10:59N 36°01' W 005°16'275 7.7
2018-Jul-07 23:00N 36°26' E 000°24'4 7.9
2018-Jul-07 22:30N 36°27' E 000°29'7 7.9
2018-Jul-07 21:37N 36°30' E 000°36'1 7.8
2018-Jul-07 21:30N 36°31' E 000°37'4 7.7
2018-Jul-07 20:58N 36°32' E 000°42'4 7.6
2018-Jul-07 20:28N 36°34' E 000°46'12 7.8
2018-Jul-07 18:58N 36°38' E 001°00'5 8.0
2018-Jul-07 18:18N 36°38' E 001°07'2 8.0
2018-Jul-07 18:00N 36°39' E 001°10'87 9.0
2018-Jul-07 08:22N 36°50' E 002°57'446 8.7
2018-Jul-05 05:12N 38°14' E 012°10'210.3
2018-Jul-05 05:00N 38°14' E 012°13'1910.4
2018-Jul-05 03:13N 38°18' E 012°36'210.6
2018-Jul-05 03:00N 38°18' E 012°39'810.7
2018-Jul-05 02:17N 38°18' E 012°49'510.9
2018-Jul-05 01:50N 38°19' E 012°55'411.1
2018-Jul-05 01:29N 38°19' E 012°60'510.7
2018-Jul-05 01:00N 38°19' E 013°06'510.6
2018-Jul-05 00:30N 38°19' E 013°13'611.1
2018-Jul-04 23:59N 38°19' E 013°20'511.2
2018-Jul-04 23:30N 38°19' E 013°27'611.3
2018-Jul-04 23:00N 38°19' E 013°35'511.0
2018-Jul-04 22:31N 38°19' E 013°42'510.9
2018-Jul-04 22:00N 38°19' E 013°48'610.8
2018-Jul-04 21:28N 38°19' E 013°56'4511.0
2018-Jul-04 17:22N 38°19' E 014°54'511.0
2018-Jul-04 16:56N 38°19' E 014°60'511.0
2018-Jul-04 16:30N 38°19' E 015°06'610.8
2018-Jul-04 15:55N 38°19' E 015°14'510.6
2018-Jul-04 15:29N 38°20' E 015°20'510.4
2018-Jul-04 15:00N 38°20' E 015°26'510.1
2018-Jul-04 14:30N 38°20' E 015°32'510.2
2018-Jul-04 14:00N 38°19' E 015°39'4 6.6
2018-Jul-04 13:21N 38°15' E 015°40'3 7.8
2018-Jul-04 13:00N 38°13' E 015°37'510.0
2018-Jul-04 12:30N 38°08' E 015°36'610.3
2018-Jul-04 11:57N 38°03' E 015°35'4 9.1
2018-Jul-04 11:31N 37°59' E 015°36'5 8.9
2018-Jul-04 10:59N 37°55' E 015°39'510.1
2018-Jul-04 10:28N 37°51' E 015°43'511.3
2018-Jul-04 09:59N 37°51' E 015°50'165 9.4
2018-Jul-03 16:29N 40°24' E 017°07'5 9.5
2018-Jul-03 16:01N 40°27' E 017°12'2 3.5
2018-Jul-03 15:29N 40°29' E 017°13'0 0.0
2018-Jul-03 14:59N 40°29' E 017°13'0 0.0
2018-Jul-03 14:29N 40°29' E 017°13'0 0.0
2018-Jul-03 13:58N 40°29' E 017°13'0 0.0
2018-Jul-03 13:25N 40°29' E 017°13'0 0.0
2018-Jul-03 12:55N 40°29' E 017°13'0 0.0
2018-Jul-03 12:28N 40°29' E 017°13'0 0.0
2018-Jul-03 11:58N 40°29' E 017°13'0 0.0
2018-Jul-03 11:28N 40°29' E 017°13'0 0.0
2018-Jul-03 10:58N 40°29' E 017°13'0 0.0
2018-Jul-03 10:28N 40°29' E 017°13'0 0.0
2018-Jul-03 09:58N 40°29' E 017°13'0 0.0
2018-Jul-03 09:28N 40°29' E 017°13'0 0.0
2018-Jul-03 08:58N 40°29' E 017°13'0 0.0
2018-Jul-03 08:28N 40°29' E 017°13'0 0.0
2018-Jul-03 07:58N 40°29' E 017°13'0 0.0
2018-Jul-03 07:28N 40°29' E 017°13'0 0.0
2018-Jul-03 06:58N 40°29' E 017°13'0 0.0
2018-Jul-03 06:25N 40°29' E 017°13'0 0.0
2018-Jul-03 05:58N 40°29' E 017°13'0 0.0
2018-Jul-03 05:28N 40°29' E 017°13'0 0.0
2018-Jul-03 04:58N 40°29' E 017°13'0 0.0
2018-Jul-03 04:28N 40°29' E 017°13'0 0.0
2018-Jul-03 03:58N 40°29' E 017°13'0 0.0
2018-Jul-03 03:28N 40°29' E 017°13'0 0.0
2018-Jul-03 02:58N 40°29' E 017°13'0 0.0
2018-Jul-03 02:28N 40°29' E 017°13'0 0.0
2018-Jul-03 01:58N 40°29' E 017°13'0 0.0
2018-Jul-03 01:28N 40°29' E 017°13'0 0.0
2018-Jul-03 00:58N 40°29' E 017°13'0 0.0
2018-Jul-03 00:28N 40°29' E 017°13'0 0.0
2018-Jul-02 23:58N 40°29' E 017°13'0 0.0
2018-Jul-02 23:28N 40°29' E 017°13'0 0.0
2018-Jul-02 22:58N 40°29' E 017°13'0 0.0
2018-Jul-02 22:28N 40°29' E 017°13'0 0.0
2018-Jul-02 22:00N 40°29' E 017°13'0 0.0
2018-Jul-02 21:30N 40°29' E 017°13'0 0.0
2018-Jul-02 21:00N 40°29' E 017°13'0 0.0
2018-Jul-02 20:27N 40°29' E 017°13'0 0.0
2018-Jul-02 20:00N 40°29' E 017°13'0 0.0
2018-Jul-02 19:30N 40°29' E 017°13'0 0.0
2018-Jul-02 18:59N 40°29' E 017°13'0 0.0
2018-Jul-02 18:29N 40°29' E 017°13'0 0.0
2018-Jul-02 17:59N 40°29' E 017°13'0 0.0
2018-Jul-02 17:29N 40°29' E 017°13'0 0.0
2018-Jul-02 16:59N 40°29' E 017°13'0 0.0
2018-Jul-02 16:29N 40°29' E 017°13'0 0.0
2018-Jul-02 15:59N 40°29' E 017°13'0 0.0
2018-Jul-02 15:29N 40°29' E 017°13'0 0.0
2018-Jul-02 14:59N 40°29' E 017°13'0 0.0
2018-Jul-02 14:29N 40°29' E 017°13'0 0.0
2018-Jul-02 13:59N 40°29' E 017°13'0 0.0
2018-Jul-02 13:29N 40°29' E 017°13'0 0.0
2018-Jul-02 12:59N 40°29' E 017°13'0 0.0
2018-Jul-02 12:29N 40°29' E 017°13'0 0.0
2018-Jul-02 11:59N 40°29' E 017°13'0 0.0
2018-Jul-02 11:29N 40°29' E 017°13'0 0.0
2018-Jul-02 10:59N 40°29' E 017°13'0 0.0
2018-Jul-02 10:26N 40°29' E 017°13'0 0.0
2018-Jul-02 09:59N 40°29' E 017°13'0 0.0
2018-Jul-02 09:29N 40°29' E 017°13'0 0.0
2018-Jul-02 08:59N 40°29' E 017°13'0 0.0
2018-Jul-02 08:29N 40°29' E 017°13'0 0.0
2018-Jul-02 07:59N 40°29' E 017°13'0 0.0
2018-Jul-02 07:29N 40°29' E 017°13'0 0.0
2018-Jul-02 06:59N 40°29' E 017°13'  
Track history (hours):
 
Tides and Currents Weather Stations Pressure Air Temp Water Temp Dewpoint Dewpoint Depression Visibility Wind Speed Wind Dir Waves Ship Positions

Onat

Last reported at 2018-Jul-12 06:31 UTC. Time now 2018-Jul-17 13:36 UTC.
Position N 26°53' W 014°08'.

Length 91 m; draft 5.6 m.

Type: Cargo ship. MMSI: 355854000.

Date/timePositionNaut miles runAvg speedWind from/ knotsBaromVisibWave heightAir tempDewpointWater temp
2018-Jul-12 06:31N 26°53' W 014°08'110.6
2018-Jul-12 06:25N 26°54' W 014°07'710.4
2018-Jul-12 05:46N 26°59' W 014°03'310.4
2018-Jul-12 05:29N 27°01' W 014°01'510.5
2018-Jul-12 04:58N 27°06' W 013°57'1710.9
2018-Jul-12 03:23N 27°19' W 013°45'711.1
2018-Jul-12 02:45N 27°25' W 013°40'311.3
2018-Jul-12 02:30N 27°27' W 013°38'611.0
2018-Jul-12 01:59N 27°31' W 013°34'510.9
2018-Jul-12 01:30N 27°36' W 013°30'610.9
2018-Jul-12 01:00N 27°40' W 013°26'510.9
2018-Jul-12 00:31N 27°44' W 013°23'510.9
2018-Jul-12 00:01N 27°48' W 013°19'510.9
2018-Jul-11 23:31N 27°53' W 013°15'510.8
2018-Jul-11 23:01N 27°57' W 013°11'510.9
2018-Jul-11 22:30N 28°00' W 013°07'610.8
2018-Jul-11 22:00N 28°04' W 013°02'510.6
2018-Jul-11 21:30N 28°08' W 012°58'1710.5
2018-Jul-11 19:55N 28°21' W 012°47'510.6
2018-Jul-11 19:28N 28°25' W 012°43'1810.6
2018-Jul-11 17:44N 28°40' W 012°31'1110.8
2018-Jul-11 16:43N 28°48' W 012°23'911.1
2018-Jul-11 15:54N 28°55' W 012°16'511.0
2018-Jul-11 15:29N 28°59' W 012°13'511.0
2018-Jul-11 15:00N 29°03' W 012°09'510.8
2018-Jul-11 14:31N 29°07' W 012°05'610.6
2018-Jul-11 13:59N 29°12' W 012°02'510.5
2018-Jul-11 13:30N 29°16' W 011°58'610.6
2018-Jul-11 12:55N 29°21' W 011°54'410.6
2018-Jul-11 12:30N 29°24' W 011°51'710.7
2018-Jul-11 11:53N 29°30' W 011°46'510.7
2018-Jul-11 11:22N 29°34' W 011°43'1210.8
2018-Jul-11 10:14N 29°44' W 011°34'811.0
2018-Jul-11 09:31N 29°50' W 011°29'011.3
2018-Jul-11 09:30N 29°50' W 011°29'511.0
2018-Jul-11 09:01N 29°55' W 011°25'1910.8
2018-Jul-11 07:14N 30°11' W 011°13'310.5
2018-Jul-11 07:00N 30°13' W 011°11'710.4
2018-Jul-11 06:17N 30°19' W 011°06'410.6
2018-Jul-11 05:54N 30°22' W 011°03'510.7
2018-Jul-11 05:28N 30°26' W 011°00'910.9
2018-Jul-11 04:41N 30°33' W 010°55'211.4
2018-Jul-11 04:30N 30°35' W 010°54'511.2
2018-Jul-11 04:01N 30°40' W 010°51'611.0
2018-Jul-11 03:26N 30°45' W 010°47'510.8
2018-Jul-11 03:00N 30°49' W 010°44'610.6
2018-Jul-11 02:26N 30°54' W 010°41'610.5
2018-Jul-11 01:49N 30°60' W 010°37'411.1
2018-Jul-11 01:26N 31°04' W 010°35'511.2
2018-Jul-11 00:58N 31°08' W 010°31'511.8
2018-Jul-11 00:30N 31°13' W 010°28'911.5
2018-Jul-10 23:44N 31°20' W 010°23'311.0
2018-Jul-10 23:30N 31°22' W 010°21'611.0
2018-Jul-10 22:59N 31°27' W 010°18'510.9
2018-Jul-10 22:30N 31°32' W 010°14'611.1
2018-Jul-10 21:59N 31°37' W 010°11'510.9
2018-Jul-10 21:30N 31°41' W 010°08'810.7
2018-Jul-10 20:45N 31°49' W 010°04'410.9
2018-Jul-10 20:24N 31°52' W 010°01'511.2
2018-Jul-10 20:00N 31°56' W 009°59'611.1
2018-Jul-10 19:30N 32°00' W 009°55'711.0
2018-Jul-10 18:51N 32°07' W 009°51'711.0
2018-Jul-10 18:11N 32°13' W 009°47'811.3
2018-Jul-10 17:28N 32°20' W 009°42'611.5
2018-Jul-10 16:59N 32°25' W 009°39'811.7
2018-Jul-10 16:16N 32°32' W 009°34'411.5
2018-Jul-10 15:55N 32°35' W 009°31'1411.7
2018-Jul-10 14:46N 32°47' W 009°22'9611.0
2018-Jul-10 06:05N 33°57' W 008°05'410.0
2018-Jul-10 05:39N 34°00' W 008°01'48 9.8
2018-Jul-10 00:46N 34°35' W 007°21'128 9.9
2018-Jul-09 11:51N 36°00' W 005°24'4 8.2
2018-Jul-09 11:23N 36°01' W 005°20'3 7.9
2018-Jul-09 10:59N 36°01' W 005°16'275 7.7
2018-Jul-07 23:00N 36°26' E 000°24'4 7.9
2018-Jul-07 22:30N 36°27' E 000°29'7 7.9
2018-Jul-07 21:37N 36°30' E 000°36'1 7.8
2018-Jul-07 21:30N 36°31' E 000°37'4 7.7
2018-Jul-07 20:58N 36°32' E 000°42'4 7.6
2018-Jul-07 20:28N 36°34' E 000°46'12 7.8
2018-Jul-07 18:58N 36°38' E 001°00'5 8.0
2018-Jul-07 18:18N 36°38' E 001°07'2 8.0
2018-Jul-07 18:00N 36°39' E 001°10'87 9.0
2018-Jul-07 08:22N 36°50' E 002°57'446 8.7
2018-Jul-05 05:12N 38°14' E 012°10'210.3
2018-Jul-05 05:00N 38°14' E 012°13'1910.4
2018-Jul-05 03:13N 38°18' E 012°36'210.6
2018-Jul-05 03:00N 38°18' E 012°39'810.7
2018-Jul-05 02:17N 38°18' E 012°49'510.9
2018-Jul-05 01:50N 38°19' E 012°55'411.1
2018-Jul-05 01:29N 38°19' E 012°60'510.7
2018-Jul-05 01:00N 38°19' E 013°06'510.6
2018-Jul-05 00:30N 38°19' E 013°13'611.1
2018-Jul-04 23:59N 38°19' E 013°20'511.2
2018-Jul-04 23:30N 38°19' E 013°27'611.3
2018-Jul-04 23:00N 38°19' E 013°35'511.0
2018-Jul-04 22:31N 38°19' E 013°42'510.9
2018-Jul-04 22:00N 38°19' E 013°48'610.8
2018-Jul-04 21:28N 38°19' E 013°56'4511.0
2018-Jul-04 17:22N 38°19' E 014°54'511.0
2018-Jul-04 16:56N 38°19' E 014°60'511.0
2018-Jul-04 16:30N 38°19' E 015°06'610.8
2018-Jul-04 15:55N 38°19' E 015°14'510.6
2018-Jul-04 15:29N 38°20' E 015°20'510.4
2018-Jul-04 15:00N 38°20' E 015°26'510.1
2018-Jul-04 14:30N 38°20' E 015°32'510.2
2018-Jul-04 14:00N 38°19' E 015°39'4 6.6
2018-Jul-04 13:21N 38°15' E 015°40'3 7.8
2018-Jul-04 13:00N 38°13' E 015°37'510.0
2018-Jul-04 12:30N 38°08' E 015°36'610.3
2018-Jul-04 11:57N 38°03' E 015°35'4 9.1
2018-Jul-04 11:31N 37°59' E 015°36'5 8.9
2018-Jul-04 10:59N 37°55' E 015°39'510.1
2018-Jul-04 10:28N 37°51' E 015°43'511.3
2018-Jul-04 09:59N 37°51' E 015°50'165 9.4
2018-Jul-03 16:29N 40°24' E 017°07'5 9.5
2018-Jul-03 16:01N 40°27' E 017°12'2 3.5
2018-Jul-03 15:29N 40°29' E 017°13'0 0.0
2018-Jul-03 14:59N 40°29' E 017°13'0 0.0
2018-Jul-03 14:29N 40°29' E 017°13'0 0.0
2018-Jul-03 13:58N 40°29' E 017°13'0 0.0
2018-Jul-03 13:25N 40°29' E 017°13'0 0.0
2018-Jul-03 12:55N 40°29' E 017°13'0 0.0
2018-Jul-03 12:28N 40°29' E 017°13'0 0.0
2018-Jul-03 11:58N 40°29' E 017°13'0 0.0
2018-Jul-03 11:28N 40°29' E 017°13'0 0.0
2018-Jul-03 10:58N 40°29' E 017°13'0 0.0
2018-Jul-03 10:28N 40°29' E 017°13'0 0.0
2018-Jul-03 09:58N 40°29' E 017°13'0 0.0
2018-Jul-03 09:28N 40°29' E 017°13'0 0.0
2018-Jul-03 08:58N 40°29' E 017°13'0 0.0
2018-Jul-03 08:28N 40°29' E 017°13'0 0.0
2018-Jul-03 07:58N 40°29' E 017°13'0 0.0
2018-Jul-03 07:28N 40°29' E 017°13'0 0.0
2018-Jul-03 06:58N 40°29' E 017°13'0 0.0
2018-Jul-03 06:25N 40°29' E 017°13'0 0.0
2018-Jul-03 05:58N 40°29' E 017°13'0 0.0
2018-Jul-03 05:28N 40°29' E 017°13'0 0.0
2018-Jul-03 04:58N 40°29' E 017°13'0 0.0
2018-Jul-03 04:28N 40°29' E 017°13'0 0.0
2018-Jul-03 03:58N 40°29' E 017°13'0 0.0
2018-Jul-03 03:28N 40°29' E 017°13'0 0.0
2018-Jul-03 02:58N 40°29' E 017°13'0 0.0
2018-Jul-03 02:28N 40°29' E 017°13'0 0.0
2018-Jul-03 01:58N 40°29' E 017°13'0 0.0
2018-Jul-03 01:28N 40°29' E 017°13'0 0.0
2018-Jul-03 00:58N 40°29' E 017°13'0 0.0
2018-Jul-03 00:28N 40°29' E 017°13'0 0.0
2018-Jul-02 23:58N 40°29' E 017°13'0 0.0
2018-Jul-02 23:28N 40°29' E 017°13'0 0.0
2018-Jul-02 22:58N 40°29' E 017°13'0 0.0
2018-Jul-02 22:28N 40°29' E 017°13'0 0.0
2018-Jul-02 22:00N 40°29' E 017°13'0 0.0
2018-Jul-02 21:30N 40°29' E 017°13'0 0.0
2018-Jul-02 21:00N 40°29' E 017°13'0 0.0
2018-Jul-02 20:27N 40°29' E 017°13'0 0.0
2018-Jul-02 20:00N 40°29' E 017°13'0 0.0
2018-Jul-02 19:30N 40°29' E 017°13'0 0.0
2018-Jul-02 18:59N 40°29' E 017°13'0 0.0
2018-Jul-02 18:29N 40°29' E 017°13'0 0.0
2018-Jul-02 17:59N 40°29' E 017°13'0 0.0
2018-Jul-02 17:29N 40°29' E 017°13'0 0.0
2018-Jul-02 16:59N 40°29' E 017°13'0 0.0
2018-Jul-02 16:29N 40°29' E 017°13'0 0.0
2018-Jul-02 15:59N 40°29' E 017°13'0 0.0
2018-Jul-02 15:29N 40°29' E 017°13'0 0.0
2018-Jul-02 14:59N 40°29' E 017°13'0 0.0
2018-Jul-02 14:29N 40°29' E 017°13'0 0.0
2018-Jul-02 13:59N 40°29' E 017°13'0 0.0
2018-Jul-02 13:29N 40°29' E 017°13'0 0.0
2018-Jul-02 12:59N 40°29' E 017°13'0 0.0
2018-Jul-02 12:29N 40°29' E 017°13'0 0.0
2018-Jul-02 11:59N 40°29' E 017°13'0 0.0
2018-Jul-02 11:29N 40°29' E 017°13'0 0.0
2018-Jul-02 10:59N 40°29' E 017°13'0 0.0
2018-Jul-02 10:26N 40°29' E 017°13'0 0.0
2018-Jul-02 09:59N 40°29' E 017°13'0 0.0
2018-Jul-02 09:29N 40°29' E 017°13'0 0.0
2018-Jul-02 08:59N 40°29' E 017°13'0 0.0
2018-Jul-02 08:29N 40°29' E 017°13'0 0.0
2018-Jul-02 07:59N 40°29' E 017°13'0 0.0
2018-Jul-02 07:29N 40°29' E 017°13'0 0.0
2018-Jul-02 06:59N 40°29' E 017°13'  

Dump ship's entire track history